createdAt,value
2019-02-11T00:01:30.513Z,4.89
2019-02-11T00:07:43.501Z,4.87
2019-02-11T00:14:09.107Z,4.88
2019-02-11T00:24:13.774Z,4.88
2019-02-11T00:30:41.136Z,4.87
2019-02-11T00:37:22.112Z,4.87
2019-02-11T00:43:49.952Z,4.88
2019-02-11T00:50:15.518Z,4.89
2019-02-11T00:56:54.474Z,4.85
2019-02-11T01:03:20.326Z,4.86
2019-02-11T01:09:11.767Z,4.88
2019-02-11T01:15:39.674Z,4.92
2019-02-11T01:25:51.625Z,4.91
2019-02-11T01:32:30.874Z,4.96
2019-02-11T01:38:56.694Z,4.95
2019-02-11T01:45:22.281Z,4.98
2019-02-11T01:51:59.184Z,4.98
2019-02-11T01:58:27.084Z,4.97
2019-02-11T02:04:54.991Z,4.99
2019-02-11T02:10:58.712Z,4.97
2019-02-11T02:17:36.438Z,4.94
2019-02-11T02:27:41.429Z,4.98
2019-02-11T02:34:10.149Z,4.96
2019-02-11T02:40:40.363Z,4.94
2019-02-11T02:47:22.342Z,4.91
2019-02-11T02:53:46.951Z,4.86
2019-02-11T03:00:13.617Z,4.87
2019-02-11T03:06:52.575Z,4.89
2019-02-11T03:13:20.774Z,4.85
2019-02-11T03:19:48.376Z,4.83
2019-02-11T03:30:02.702Z,4.78
2019-02-11T03:36:30.535Z,4.85
2019-02-11T03:43:09.231Z,4.85
2019-02-11T03:49:35.078Z,4.86
2019-02-11T03:56:00.926Z,4.86
2019-02-11T04:02:41.938Z,4.79
2019-02-11T04:08:55.792Z,4.73
2019-02-11T04:15:21.613Z,4.70
2019-02-11T04:21:47.202Z,4.64
2019-02-11T04:31:11.633Z,4.55
2019-02-11T04:37:50.590Z,4.51
2019-02-11T04:44:18.815Z,4.48
2019-02-11T04:50:42.618Z,4.42
2019-02-11T04:57:21.566Z,4.45
2019-02-11T05:03:45.361Z,4.44
2019-02-11T05:09:34.823Z,4.46
2019-02-11T05:15:58.624Z,4.41
2019-02-11T05:22:37.572Z,4.32
2019-02-11T05:32:57.720Z,4.26
2019-02-11T05:39:23.530Z,4.22
2019-02-11T05:45:49.353Z,4.18
2019-02-11T05:52:14.898Z,4.16
2019-02-11T05:58:42.792Z,4.09
2019-02-11T06:05:12.743Z,4.08
2019-02-11T06:11:02.134Z,4.08
2019-02-11T06:17:39.046Z,4.03
2019-02-11T06:24:06.097Z,4.00
2019-02-11T06:34:07.838Z,3.87
2019-02-11T06:40:34.881Z,3.91
2019-02-11T06:47:00.705Z,3.82
2019-02-11T06:53:41.360Z,3.85
2019-02-11T07:00:09.257Z,3.84
2019-02-11T07:06:37.164Z,3.83
2019-02-11T07:12:41.962Z,3.86
2019-02-11T07:19:09.611Z,3.86
2019-02-11T07:25:38.324Z,3.82
2019-02-11T07:35:39.216Z,3.84
2019-02-11T07:42:28.422Z,3.90
2019-02-11T07:49:05.580Z,3.91
2019-02-11T07:55:31.171Z,3.94
2019-02-11T08:01:57.024Z,3.97
2019-02-11T08:08:38.193Z,4.07
2019-02-11T08:15:05.027Z,4.06
2019-02-11T08:21:30.840Z,4.15
2019-02-11T08:27:56.659Z,4.21
2019-02-11T08:37:25.292Z,4.29
2019-02-11T08:44:04.242Z,4.33
2019-02-11T08:50:32.083Z,4.44
2019-02-11T08:56:59.681Z,4.48
2019-02-11T09:03:23.490Z,4.52
2019-02-11T09:09:26.313Z,4.52
2019-02-11T09:15:55.399Z,4.60
2019-02-11T09:22:19.739Z,4.66
2019-02-11T09:29:04.834Z,4.74
2019-02-11T09:39:18.837Z,4.84
2019-02-11T09:45:44.686Z,4.87
2019-02-11T09:52:08.488Z,4.95
2019-02-11T09:58:33.493Z,4.97
2019-02-11T10:05:12.440Z,4.97
2019-02-11T10:11:02.692Z,5.00
2019-02-11T10:17:30.081Z,5.05
2019-02-11T10:24:08.702Z,5.15
2019-02-11T10:30:36.532Z,5.22
2019-02-11T10:40:39.154Z,5.29
2019-02-11T10:47:05.327Z,5.33
2019-02-11T10:53:31.141Z,5.39
2019-02-11T11:00:13.120Z,5.37
2019-02-11T11:06:48.770Z,5.42
2019-02-11T11:12:40.527Z,5.46
2019-02-11T11:19:19.171Z,5.45
2019-02-11T11:25:47.068Z,5.44
2019-02-11T11:32:17.833Z,5.44
2019-02-11T11:42:17.907Z,5.54
2019-02-11T11:48:46.627Z,5.55
2019-02-11T11:54:48.305Z,5.59
2019-02-11T12:01:18.885Z,5.70
2019-02-11T12:07:41.208Z,5.78
2019-02-11T12:14:12.504Z,5.96
2019-02-11T12:20:50.017Z,5.97
2019-02-11T12:27:15.857Z,5.83
2019-02-11T12:33:05.307Z,5.57
2019-02-11T12:43:18.157Z,5.46
2019-02-11T12:49:55.070Z,5.50
2019-02-11T12:56:26.164Z,5.55
2019-02-11T13:02:50.984Z,5.69
2019-02-11T13:09:34.981Z,5.70
2019-02-11T13:16:02.842Z,5.80
2019-02-11T13:22:31.353Z,5.80
2019-02-11T13:28:59.513Z,5.93
2019-02-11T13:35:36.443Z,6.04
2019-02-11T13:42:04.055Z,6.10
2019-02-11T13:48:33.782Z,6.14
2019-02-11T13:54:58.949Z,6.13
2019-02-11T14:01:26.795Z,6.06
2019-02-11T14:08:01.700Z,6.13
2019-02-11T14:18:18.832Z,6.37
2019-02-11T14:24:45.328Z,6.45
2019-02-11T14:31:24.591Z,6.62
2019-02-11T14:37:54.509Z,6.66
2019-02-11T14:44:22.950Z,6.96
2019-02-11T14:51:01.901Z,7.22
2019-02-11T14:57:31.855Z,7.19
2019-02-11T15:03:57.925Z,7.14
2019-02-11T15:10:00.515Z,7.08
2019-02-11T15:20:05.505Z,7.09
2019-02-11T15:26:48.253Z,6.94
2019-02-11T15:33:19.830Z,6.82
2019-02-11T15:39:47.219Z,6.80
2019-02-11T15:46:24.133Z,6.73
2019-02-11T15:52:49.956Z,6.73
2019-02-11T15:59:17.564Z,6.67
2019-02-11T16:05:54.473Z,6.51
2019-02-11T16:12:22.378Z,6.49
2019-02-11T16:22:38.419Z,6.36
2019-02-11T16:29:04.273Z,6.36
2019-02-11T16:35:32.323Z,6.35
2019-02-11T16:42:10.262Z,6.27
2019-02-11T16:48:00.518Z,6.30
2019-02-11T16:54:27.570Z,6.27
2019-02-11T17:01:06.515Z,6.24
2019-02-11T17:07:41.667Z,6.21
2019-02-11T17:14:02.198Z,6.24
2019-02-11T17:24:07.188Z,6.19
2019-02-11T17:30:37.698Z,6.08
2019-02-11T17:36:41.437Z,6.01
2019-02-11T17:43:07.275Z,6.01
2019-02-11T17:49:31.081Z,5.98
2019-02-11T17:55:54.886Z,5.92
2019-02-11T18:02:35.035Z,5.93
2019-02-11T18:09:04.611Z,5.91
2019-02-11T18:15:28.692Z,5.90
2019-02-11T18:25:43.799Z,5.91
2019-02-11T18:32:23.412Z,5.85
2019-02-11T18:38:18.275Z,5.83
2019-02-11T18:44:45.083Z,5.80
2019-02-11T18:51:12.246Z,5.80
2019-02-11T18:57:51.656Z,5.77
2019-02-11T19:04:22.420Z,5.75
2019-02-11T19:10:52.377Z,5.67
2019-02-11T19:17:29.537Z,5.53
2019-02-11T19:27:34.531Z,5.46
2019-02-11T19:34:02.166Z,5.38
2019-02-11T19:40:26.174Z,5.33
2019-02-11T19:47:07.801Z,5.30
2019-02-11T19:53:38.966Z,5.32
2019-02-11T20:00:05.636Z,5.32
2019-02-11T20:06:33.685Z,5.31
2019-02-11T20:13:11.264Z,5.24
2019-02-11T20:19:37.444Z,5.14
2019-02-11T20:29:40.052Z,5.11
2019-02-11T20:36:10.005Z,5.07
2019-02-11T20:42:49.233Z,4.91
2019-02-11T20:49:17.076Z,4.75
2019-02-11T20:55:44.946Z,4.56
2019-02-11T21:02:24.529Z,4.37
2019-02-11T21:08:50.704Z,4.13
2019-02-11T21:14:40.161Z,4.09
2019-02-11T21:21:05.977Z,4.12
2019-02-11T21:31:22.495Z,4.00
2019-02-11T21:38:02.685Z,4.00
2019-02-11T21:44:28.864Z,3.89
2019-02-11T21:47:26.301Z,3.78
2019-02-11T21:53:27.991Z,3.72
2019-02-11T21:59:55.042Z,3.58
2019-02-11T22:06:20.858Z,3.58
2019-02-11T22:12:59.462Z,3.49
2019-02-11T22:19:25.641Z,3.36
2019-02-11T22:25:51.442Z,3.29
2019-02-11T22:32:18.282Z,3.26
2019-02-11T22:38:55.970Z,3.23
2019-02-11T22:45:24.686Z,3.24
2019-02-11T22:55:03.457Z,3.14
2019-02-11T23:01:31.633Z,3.08
2019-02-11T23:08:10.584Z,2.95
2019-02-11T23:14:38.212Z,2.87
2019-02-11T23:21:04.883Z,2.82
2019-02-11T23:27:31.076Z,2.72
2019-02-11T23:34:08.873Z,2.64
2019-02-11T23:40:35.843Z,2.51
2019-02-11T23:47:03.683Z,2.47
2019-02-11T23:56:30.295Z,2.45
